sensor_id;sensor_type;location;lat;lon;timestamp;pressure;altitude;pressure_sealevel;temperature;humidity
34081;BME280;20358;50.272;19.026;2023-01-09T00:01:37;97209.75;;;4.43;61.11
34081;BME280;20358;50.272;19.026;2023-01-09T00:04:47;97209.22;;;4.38;61.12
34081;BME280;20358;50.272;19.026;2023-01-09T00:07:53;97196.56;;;4.32;61.66
34081;BME280;20358;50.272;19.026;2023-01-09T00:10:59;97204.84;;;4.25;61.37
34081;BME280;20358;50.272;19.026;2023-01-09T00:14:05;97196.56;;;4.19;61.78
34081;BME280;20358;50.272;19.026;2023-01-09T00:17:12;97204.72;;;4.14;61.74
34081;BME280;20358;50.272;19.026;2023-01-09T00:20:21;97195.41;;;4.10;62.21
34081;BME280;20358;50.272;19.026;2023-01-09T00:23:26;97206.16;;;4.06;62.14
34081;BME280;20358;50.272;19.026;2023-01-09T00:26:33;97202.16;;;4.00;62.18
34081;BME280;20358;50.272;19.026;2023-01-09T00:29:41;97193.06;;;3.93;62.55
34081;BME280;20358;50.272;19.026;2023-01-09T00:32:49;97187.31;;;3.88;62.59
34081;BME280;20358;50.272;19.026;2023-01-09T00:35:57;97183.22;;;3.84;62.49
34081;BME280;20358;50.272;19.026;2023-01-09T00:39:04;97186.09;;;3.80;63.16
34081;BME280;20358;50.272;19.026;2023-01-09T00:42:14;97188.09;;;3.76;62.63
34081;BME280;20358;50.272;19.026;2023-01-09T00:45:28;97194.25;;;3.75;62.45
34081;BME280;20358;50.272;19.026;2023-01-09T00:48:37;97209.06;;;3.75;62.84
34081;BME280;20358;50.272;19.026;2023-01-09T00:51:48;97201.44;;;3.72;62.93
34081;BME280;20358;50.272;19.026;2023-01-09T00:54:57;97185.16;;;3.68;62.99
34081;BME280;20358;50.272;19.026;2023-01-09T00:58:05;97190.38;;;3.68;63.60
34081;BME280;20358;50.272;19.026;2023-01-09T01:01:11;97180.97;;;3.65;63.42
34081;BME280;20358;50.272;19.026;2023-01-09T01:04:18;97170.59;;;3.64;62.80
34081;BME280;20358;50.272;19.026;2023-01-09T01:07:42;97175.09;;;3.62;63.66
34081;BME280;20358;50.272;19.026;2023-01-09T01:10:48;97174.44;;;3.58;63.48
34081;BME280;20358;50.272;19.026;2023-01-09T01:13:55;97170.28;;;3.56;62.89
34081;BME280;20358;50.272;19.026;2023-01-09T01:17:01;97151.06;;;3.57;63.34
34081;BME280;20358;50.272;19.026;2023-01-09T01:20:11;97157.97;;;3.58;63.38
34081;BME280;20358;50.272;19.026;2023-01-09T01:23:22;97137.09;;;3.58;63.68
34081;BME280;20358;50.272;19.026;2023-01-09T01:26:27;97150.88;;;3.60;63.20
34081;BME280;20358;50.272;19.026;2023-01-09T01:29:33;97141.38;;;3.59;63.95
34081;BME280;20358;50.272;19.026;2023-01-09T01:32:39;97164.97;;;3.57;63.34
34081;BME280;20358;50.272;19.026;2023-01-09T01:35:46;97164.13;;;3.57;63.69
34081;BME280;20358;50.272;19.026;2023-01-09T01:38:54;97168.41;;;3.58;63.51
34081;BME280;20358;50.272;19.026;2023-01-09T01:42:02;97162.97;;;3.61;64.34
34081;BME280;20358;50.272;19.026;2023-01-09T01:45:10;97143.03;;;3.60;63.77
34081;BME280;20358;50.272;19.026;2023-01-09T01:48:24;97154.03;;;3.65;63.03
34081;BME280;20358;50.272;19.026;2023-01-09T01:51:39;97143.78;;;3.62;63.43
34081;BME280;20358;50.272;19.026;2023-01-09T01:54:51;97123.72;;;3.50;63.45
34081;BME280;20358;50.272;19.026;2023-01-09T01:58:03;97137.72;;;3.61;63.55
34081;BME280;20358;50.272;19.026;2023-01-09T02:01:13;97141.06;;;3.63;64.11
34081;BME280;20358;50.272;19.026;2023-01-09T02:04:19;97142.94;;;3.61;63.51
34081;BME280;20358;50.272;19.026;2023-01-09T02:07:26;97147.31;;;3.61;64.30
34081;BME280;20358;50.272;19.026;2023-01-09T02:10:36;97142.19;;;3.59;63.80
34081;BME280;20358;50.272;19.026;2023-01-09T02:13:44;97142.31;;;3.58;63.59
34081;BME280;20358;50.272;19.026;2023-01-09T02:16:57;97139.91;;;3.55;63.73
34081;BME280;20358;50.272;19.026;2023-01-09T02:20:32;97147.31;;;3.61;64.04
34081;BME280;20358;50.272;19.026;2023-01-09T02:24:06;97140.31;;;3.61;63.61
34081;BME280;20358;50.272;19.026;2023-01-09T02:27:36;97135.41;;;3.57;63.08
34081;BME280;20358;50.272;19.026;2023-01-09T02:31:14;97138.13;;;3.55;63.86
34081;BME280;20358;50.272;19.026;2023-01-09T02:34:36;97148.13;;;3.49;63.33
34081;BME280;20358;50.272;19.026;2023-01-09T02:38:01;97146.66;;;3.45;63.56
34081;BME280;20358;50.272;19.026;2023-01-09T02:41:20;97127.00;;;3.39;63.66
34081;BME280;20358;50.272;19.026;2023-01-09T02:44:33;97129.72;;;3.38;63.75
34081;BME280;20358;50.272;19.026;2023-01-09T02:47:45;97119.28;;;3.38;63.60
34081;BME280;20358;50.272;19.026;2023-01-09T02:51:05;97104.56;;;3.37;64.76
34081;BME280;20358;50.272;19.026;2023-01-09T02:54:31;97106.34;;;3.36;63.70
34081;BME280;20358;50.272;19.026;2023-01-09T02:58:00;97098.63;;;3.35;64.30
34081;BME280;20358;50.272;19.026;2023-01-09T03:01:23;97100.66;;;3.30;64.43
34081;BME280;20358;50.272;19.026;2023-01-09T03:04:49;97100.47;;;3.33;63.95
34081;BME280;20358;50.272;19.026;2023-01-09T03:08:07;97105.88;;;3.30;64.32
34081;BME280;20358;50.272;19.026;2023-01-09T03:11:17;97109.63;;;3.26;64.22
34081;BME280;20358;50.272;19.026;2023-01-09T03:14:25;97107.22;;;3.23;63.96
34081;BME280;20358;50.272;19.026;2023-01-09T03:17:36;97096.06;;;3.21;63.83
34081;BME280;20358;50.272;19.026;2023-01-09T03:20:51;97084.78;;;3.20;64.52
34081;BME280;20358;50.272;19.026;2023-01-09T03:24:01;97086.84;;;3.15;63.64
34081;BME280;20358;50.272;19.026;2023-01-09T03:27:08;97070.78;;;3.09;63.94
34081;BME280;20358;50.272;19.026;2023-01-09T03:30:14;97071.59;;;3.09;64.71
34081;BME280;20358;50.272;19.026;2023-01-09T03:33:20;97053.44;;;3.07;64.53
34081;BME280;20358;50.272;19.026;2023-01-09T03:36:29;97026.41;;;2.96;63.88
34081;BME280;20358;50.272;19.026;2023-01-09T03:39:36;97043.84;;;3.08;64.70
34081;BME280;20358;50.272;19.026;2023-01-09T03:42:41;97038.00;;;3.04;64.68
34081;BME280;20358;50.272;19.026;2023-01-09T03:45:50;97046.78;;;3.03;63.81
34081;BME280;20358;50.272;19.026;2023-01-09T03:48:59;97033.94;;;3.00;64.44
34081;BME280;20358;50.272;19.026;2023-01-09T03:52:19;97029.63;;;2.99;63.85
34081;BME280;20358;50.272;19.026;2023-01-09T03:55:24;97025.44;;;2.97;64.45
34081;BME280;20358;50.272;19.026;2023-01-09T03:58:30;97025.38;;;2.98;64.48
34081;BME280;20358;50.272;19.026;2023-01-09T04:01:36;97021.09;;;2.97;64.25
34081;BME280;20358;50.272;19.026;2023-01-09T04:04:42;97020.44;;;2.94;63.73
34081;BME280;20358;50.272;19.026;2023-01-09T04:07:50;97019.59;;;2.93;63.88
34081;BME280;20358;50.272;19.026;2023-01-09T04:10:57;97005.81;;;2.91;64.51
34081;BME280;20358;50.272;19.026;2023-01-09T04:14:02;97011.03;;;2.91;64.29
34081;BME280;20358;50.272;19.026;2023-01-09T04:17:09;97011.88;;;2.92;64.71
34081;BME280;20358;50.272;19.026;2023-01-09T04:20:14;97002.38;;;2.91;63.90
34081;BME280;20358;50.272;19.026;2023-01-09T04:23:24;96998.31;;;2.87;64.42
34081;BME280;20358;50.272;19.026;2023-01-09T04:26:29;96993.41;;;2.82;64.11
34081;BME280;20358;50.272;19.026;2023-01-09T04:29:35;96991.19;;;2.76;63.73
34081;BME280;20358;50.272;19.026;2023-01-09T04:32:41;96984.50;;;2.72;63.61
34081;BME280;20358;50.272;19.026;2023-01-09T04:35:47;96978.66;;;2.69;63.58
34081;BME280;20358;50.272;19.026;2023-01-09T04:38:56;96976.34;;;2.64;63.75
34081;BME280;20358;50.272;19.026;2023-01-09T04:42:02;96971.31;;;2.61;64.58
34081;BME280;20358;50.272;19.026;2023-01-09T04:45:10;96971.63;;;2.57;64.75
34081;BME280;20358;50.272;19.026;2023-01-09T04:48:17;96973.59;;;2.53;63.83
34081;BME280;20358;50.272;19.026;2023-01-09T04:51:22;96975.28;;;2.54;64.78
34081;BME280;20358;50.272;19.026;2023-01-09T04:54:31;96971.72;;;2.55;64.09
34081;BME280;20358;50.272;19.026;2023-01-09T04:57:37;96967.22;;;2.57;63.96
34081;BME280;20358;50.272;19.026;2023-01-09T05:00:44;96962.97;;;2.56;64.46
34081;BME280;20358;50.272;19.026;2023-01-09T05:03:50;96963.81;;;2.57;63.90
34081;BME280;20358;50.272;19.026;2023-01-09T05:06:56;96956.72;;;2.59;64.14
34081;BME280;20358;50.272;19.026;2023-01-09T05:10:06;96953.09;;;2.61;64.12
34081;BME280;20358;50.272;19.026;2023-01-09T05:13:14;96949.34;;;2.65;65.25
34081;BME280;20358;50.272;19.026;2023-01-09T05:16:20;96943.72;;;2.71;63.98
34081;BME280;20358;50.272;19.026;2023-01-09T05:19:26;96939.88;;;2.77;64.90
34081;BME280;20358;50.272;19.026;2023-01-09T05:22:32;96944.06;;;2.79;64.23
34081;BME280;20358;50.272;19.026;2023-01-09T05:25:41;96937.81;;;2.82;64.61
34081;BME280;20358;50.272;19.026;2023-01-09T05:28:46;96935.84;;;2.85;63.71
34081;BME280;20358;50.272;19.026;2023-01-09T05:31:52;96927.06;;;2.86;63.64
34081;BME280;20358;50.272;19.026;2023-01-09T05:34:58;96924.28;;;2.89;63.78
34081;BME280;20358;50.272;19.026;2023-01-09T05:38:04;96910.50;;;2.87;64.44
34081;BME280;20358;50.272;19.026;2023-01-09T05:41:12;96919.38;;;2.97;64.14
34081;BME280;20358;50.272;19.026;2023-01-09T05:44:19;96908.75;;;3.00;64.25
34081;BME280;20358;50.272;19.026;2023-01-09T05:47:24;96909.47;;;3.02;64.10
34081;BME280;20358;50.272;19.026;2023-01-09T05:50:30;96899.06;;;3.02;63.67
34081;BME280;20358;50.272;19.026;2023-01-09T05:53:36;96909.59;;;3.01;62.84
34081;BME280;20358;50.272;19.026;2023-01-09T05:56:45;96905.44;;;2.98;63.67
34081;BME280;20358;50.272;19.026;2023-01-09T05:59:50;96897.59;;;2.98;63.45
34081;BME280;20358;50.272;19.026;2023-01-09T06:02:57;96902.59;;;3.01;63.41
34081;BME280;20358;50.272;19.026;2023-01-09T06:06:03;96905.94;;;3.03;62.66
34081;BME280;20358;50.272;19.026;2023-01-09T06:09:10;96903.03;;;3.08;62.65
34081;BME280;20358;50.272;19.026;2023-01-09T06:12:18;96899.06;;;3.15;62.57
34081;BME280;20358;50.272;19.026;2023-01-09T06:15:24;96902.31;;;3.19;63.13
34081;BME280;20358;50.272;19.026;2023-01-09T06:18:30;96903.94;;;3.20;62.76
34081;BME280;20358;50.272;19.026;2023-01-09T06:21:36;96894.28;;;3.22;62.51
34081;BME280;20358;50.272;19.026;2023-01-09T06:24:41;96901.78;;;3.26;63.35
34081;BME280;20358;50.272;19.026;2023-01-09T06:27:51;96894.69;;;3.28;62.80
34081;BME280;20358;50.272;19.026;2023-01-09T06:30:56;96893.00;;;3.27;62.41
34081;BME280;20358;50.272;19.026;2023-01-09T06:34:02;96894.78;;;3.27;62.62
34081;BME280;20358;50.272;19.026;2023-01-09T06:37:08;96900.94;;;3.26;63.64
34081;BME280;20358;50.272;19.026;2023-01-09T06:40:15;96890.31;;;3.29;62.63
34081;BME280;20358;50.272;19.026;2023-01-09T06:43:24;96896.97;;;3.33;63.91
34081;BME280;20358;50.272;19.026;2023-01-09T06:46:31;96900.31;;;3.35;62.81
34081;BME280;20358;50.272;19.026;2023-01-09T06:49:36;96891.34;;;3.39;63.75
34081;BME280;20358;50.272;19.026;2023-01-09T06:52:43;96896.34;;;3.42;63.49
34081;BME280;20358;50.272;19.026;2023-01-09T06:55:48;96894.47;;;3.44;63.85
34081;BME280;20358;50.272;19.026;2023-01-09T06:58:57;96896.16;;;3.45;63.96
34081;BME280;20358;50.272;19.026;2023-01-09T07:02:03;96900.53;;;3.32;64.00
34081;BME280;20358;50.272;19.026;2023-01-09T07:05:09;96910.97;;;3.32;65.28
34081;BME280;20358;50.272;19.026;2023-01-09T07:08:15;96767.41;;;2.45;65.06
34081;BME280;20358;50.272;19.026;2023-01-09T07:11:21;96902.63;;;3.27;65.04
34081;BME280;20358;50.272;19.026;2023-01-09T07:14:30;96900.31;;;3.22;66.08
34081;BME280;20358;50.272;19.026;2023-01-09T07:17:36;96899.50;;;3.22;66.70
34081;BME280;20358;50.272;19.026;2023-01-09T07:20:41;96909.09;;;3.21;66.24
34081;BME280;20358;50.272;19.026;2023-01-09T07:23:48;96909.69;;;3.25;66.55
34081;BME280;20358;50.272;19.026;2023-01-09T07:26:54;96905.94;;;3.29;67.24
34081;BME280;20358;50.272;19.026;2023-01-09T07:30:04;96900.53;;;3.32;67.01
34081;BME280;20358;50.272;19.026;2023-01-09T07:33:10;96907.19;;;3.36;67.77
34081;BME280;20358;50.272;19.026;2023-01-09T07:36:17;96900.41;;;3.33;67.63
34081;BME280;20358;50.272;19.026;2023-01-09T07:39:22;96896.56;;;3.39;67.21
34081;BME280;20358;50.272;19.026;2023-01-09T07:42:29;96904.38;;;3.39;67.43
34081;BME280;20358;50.272;19.026;2023-01-09T07:45:37;96898.25;;;3.40;67.77
34081;BME280;20358;50.272;19.026;2023-01-09T07:48:44;96897.06;;;3.44;68.58
34081;BME280;20358;50.272;19.026;2023-01-09T07:51:49;96893.41;;;3.46;68.01
34081;BME280;20358;50.272;19.026;2023-01-09T07:54:55;96891.13;;;3.54;67.77
34081;BME280;20358;50.272;19.026;2023-01-09T07:58:01;96884.63;;;3.60;67.54
34081;BME280;20358;50.272;19.026;2023-01-09T08:01:10;96890.25;;;3.66;67.43
34081;BME280;20358;50.272;19.026;2023-01-09T08:04:16;96890.88;;;3.70;67.90
34081;BME280;20358;50.272;19.026;2023-01-09T08:07:22;96873.31;;;3.72;67.96
34081;BME280;20358;50.272;19.026;2023-01-09T08:10:28;96874.16;;;3.85;67.82
34081;BME280;20358;50.272;19.026;2023-01-09T08:13:34;96869.03;;;3.96;67.83
34081;BME280;20358;50.272;19.026;2023-01-09T08:16:42;96860.28;;;4.08;67.67
34081;BME280;20358;50.272;19.026;2023-01-09T08:19:49;96870.91;;;4.18;67.87
34081;BME280;20358;50.272;19.026;2023-01-09T08:22:54;96869.88;;;4.20;67.26
34081;BME280;20358;50.272;19.026;2023-01-09T08:26:00;96867.78;;;4.25;67.67
34081;BME280;20358;50.272;19.026;2023-01-09T08:29:06;96861.25;;;4.31;67.60
34081;BME280;20358;50.272;19.026;2023-01-09T08:32:15;96855.47;;;4.39;67.20
34081;BME280;20358;50.272;19.026;2023-01-09T08:35:20;96865.53;;;4.56;67.68
34081;BME280;20358;50.272;19.026;2023-01-09T08:38:27;96864.59;;;4.68;67.39
34081;BME280;20358;50.272;19.026;2023-01-09T08:41:32;96864.28;;;4.83;67.05
34081;BME280;20358;50.272;19.026;2023-01-09T08:44:54;96866.81;;;4.96;66.77
34081;BME280;20358;50.272;19.026;2023-01-09T08:48:30;96866.84;;;5.07;66.38
34081;BME280;20358;50.272;19.026;2023-01-09T08:51:36;96866.16;;;5.16;66.42
34081;BME280;20358;50.272;19.026;2023-01-09T08:54:42;96862.13;;;5.23;65.93
34081;BME280;20358;50.272;19.026;2023-01-09T08:57:49;96823.31;;;5.06;65.87
34081;BME280;20358;50.272;19.026;2023-01-09T09:00:58;96862.38;;;5.42;65.33
34081;BME280;20358;50.272;19.026;2023-01-09T09:04:09;96870.22;;;5.42;64.95
34081;BME280;20358;50.272;19.026;2023-01-09T09:07:14;96854.03;;;5.37;65.12
34081;BME280;20358;50.272;19.026;2023-01-09T09:10:28;96872.03;;;5.42;64.97
34081;BME280;20358;50.272;19.026;2023-01-09T09:13:34;96855.94;;;5.35;65.16
34081;BME280;20358;50.272;19.026;2023-01-09T09:16:40;96862.84;;;5.36;64.56
34081;BME280;20358;50.272;19.026;2023-01-09T09:19:49;96869.38;;;5.31;64.97
34081;BME280;20358;50.272;19.026;2023-01-09T09:22:56;96867.13;;;5.26;65.05
34081;BME280;20358;50.272;19.026;2023-01-09T09:26:03;96844.97;;;5.19;65.17
34081;BME280;20358;50.272;19.026;2023-01-09T09:29:10;96853.56;;;5.21;64.96
34081;BME280;20358;50.272;19.026;2023-01-09T09:32:16;96858.53;;;5.24;65.14
34081;BME280;20358;50.272;19.026;2023-01-09T09:35:25;96835.94;;;5.23;64.79
34081;BME280;20358;50.272;19.026;2023-01-09T09:38:33;96835.97;;;5.34;65.23
34081;BME280;20358;50.272;19.026;2023-01-09T09:41:59;96827.19;;;5.46;64.94
34081;BME280;20358;50.272;19.026;2023-01-09T09:45:50;96827.88;;;5.60;65.31
34081;BME280;20358;50.272;19.026;2023-01-09T09:49:11;96826.44;;;5.67;65.40
34081;BME280;20358;50.272;19.026;2023-01-09T09:52:34;96825.84;;;5.74;65.89
34081;BME280;20358;50.272;19.026;2023-01-09T09:55:48;96820.97;;;5.81;65.60
34081;BME280;20358;50.272;19.026;2023-01-09T09:59:00;96824.88;;;5.86;64.90
34081;BME280;20358;50.272;19.026;2023-01-09T10:02:24;96817.47;;;5.91;65.41
34081;BME280;20358;50.272;19.026;2023-01-09T10:05:38;96815.91;;;6.00;65.97
34081;BME280;20358;50.272;19.026;2023-01-09T10:08:57;96815.16;;;6.09;65.51
34081;BME280;20358;50.272;19.026;2023-01-09T10:12:23;96814.16;;;6.21;65.30
34081;BME280;20358;50.272;19.026;2023-01-09T10:15:41;96805.44;;;6.32;65.47
34081;BME280;20358;50.272;19.026;2023-01-09T10:19:09;96767.00;;;6.21;65.77
34081;BME280;20358;50.272;19.026;2023-01-09T10:22:37;96806.59;;;6.59;64.99
34081;BME280;20358;50.272;19.026;2023-01-09T10:25:56;96802.47;;;6.77;65.68
34081;BME280;20358;50.272;19.026;2023-01-09T10:29:33;96798.72;;;6.91;65.54
34081;BME280;20358;50.272;19.026;2023-01-09T10:32:57;96805.88;;;7.10;64.98
34081;BME280;20358;50.272;19.026;2023-01-09T10:36:42;96804.56;;;7.25;64.83
34081;BME280;20358;50.272;19.026;2023-01-09T10:40:13;96803.78;;;7.34;65.07
34081;BME280;20358;50.272;19.026;2023-01-09T10:43:40;96801.19;;;7.44;64.03
34081;BME280;20358;50.272;19.026;2023-01-09T10:46:53;96796.50;;;7.47;63.34
34081;BME280;20358;50.272;19.026;2023-01-09T10:50:18;96789.75;;;7.54;64.74
34081;BME280;20358;50.272;19.026;2023-01-09T10:53:29;96791.84;;;7.60;64.59
34081;BME280;20358;50.272;19.026;2023-01-09T10:56:46;96783.69;;;7.63;64.07
34081;BME280;20358;50.272;19.026;2023-01-09T11:00:02;96790.78;;;7.72;63.97
34081;BME280;20358;50.272;19.026;2023-01-09T11:03:11;96785.25;;;7.75;64.17
34081;BME280;20358;50.272;19.026;2023-01-09T11:06:23;96783.31;;;7.77;64.29
34081;BME280;20358;50.272;19.026;2023-01-09T11:09:56;96785.00;;;7.78;64.57
34081;BME280;20358;50.272;19.026;2023-01-09T11:13:16;96783.75;;;7.82;64.18
34081;BME280;20358;50.272;19.026;2023-01-09T11:16:27;96785.53;;;7.82;63.95
34081;BME280;20358;50.272;19.026;2023-01-09T11:19:33;96792.59;;;7.81;64.82
34081;BME280;20358;50.272;19.026;2023-01-09T11:22:42;96787.31;;;7.81;64.82
34081;BME280;20358;50.272;19.026;2023-01-09T11:25:51;96786.63;;;7.79;64.90
34081;BME280;20358;50.272;19.026;2023-01-09T11:29:06;96787.63;;;7.78;65.19
34081;BME280;20358;50.272;19.026;2023-01-09T11:32:22;96785.25;;;7.75;64.71
34081;BME280;20358;50.272;19.026;2023-01-09T11:35:37;96783.84;;;7.71;65.60
34081;BME280;20358;50.272;19.026;2023-01-09T11:38:55;96784.13;;;7.68;65.65
34081;BME280;20358;50.272;19.026;2023-01-09T11:42:08;96787.72;;;7.67;65.35
34081;BME280;20358;50.272;19.026;2023-01-09T11:45:48;96787.03;;;7.65;66.24
34081;BME280;20358;50.272;19.026;2023-01-09T11:49:20;96790.19;;;7.59;65.10
34081;BME280;20358;50.272;19.026;2023-01-09T11:52:27;96793.47;;;7.52;66.43
34081;BME280;20358;50.272;19.026;2023-01-09T11:55:33;96789.31;;;7.49;65.88
34081;BME280;20358;50.272;19.026;2023-01-09T11:58:44;96788.75;;;7.46;66.18
34081;BME280;20358;50.272;19.026;2023-01-09T12:02:16;96789.84;;;7.43;65.99
34081;BME280;20358;50.272;19.026;2023-01-09T12:05:43;96778.22;;;7.36;65.76
34081;BME280;20358;50.272;19.026;2023-01-09T12:09:02;96785.56;;;7.42;66.17
34081;BME280;20358;50.272;19.026;2023-01-09T12:12:22;96781.00;;;7.44;66.79
34081;BME280;20358;50.272;19.026;2023-01-09T12:15:45;96785.44;;;7.44;66.75
34081;BME280;20358;50.272;19.026;2023-01-09T12:19:11;96778.25;;;7.46;66.61
34081;BME280;20358;50.272;19.026;2023-01-09T12:22:42;96773.56;;;7.49;65.76
34081;BME280;20358;50.272;19.026;2023-01-09T12:26:05;96766.38;;;7.51;66.03
34081;BME280;20358;50.272;19.026;2023-01-09T12:29:44;96758.94;;;7.56;66.63
34081;BME280;20358;50.272;19.026;2023-01-09T12:33:24;96758.41;;;7.62;66.17
34081;BME280;20358;50.272;19.026;2023-01-09T12:36:56;96754.53;;;7.66;66.33
34081;BME280;20358;50.272;19.026;2023-01-09T12:40:31;96754.25;;;7.69;66.28
34081;BME280;20358;50.272;19.026;2023-01-09T12:44:08;96754.53;;;7.66;66.02
34081;BME280;20358;50.272;19.026;2023-01-09T12:47:44;96752.31;;;7.71;65.25
34081;BME280;20358;50.272;19.026;2023-01-09T12:51:17;96749.00;;;7.79;65.00
34081;BME280;20358;50.272;19.026;2023-01-09T12:54:37;96742.66;;;7.81;65.01
34081;BME280;20358;50.272;19.026;2023-01-09T12:57:54;96744.59;;;7.89;64.91
34081;BME280;20358;50.272;19.026;2023-01-09T13:01:10;96745.72;;;7.96;64.46
34081;BME280;20358;50.272;19.026;2023-01-09T13:04:25;96746.28;;;7.99;65.29
34081;BME280;20358;50.272;19.026;2023-01-09T13:07:41;96750.84;;;7.97;64.32
34081;BME280;20358;50.272;19.026;2023-01-09T13:10:54;96751.84;;;7.96;64.41
34081;BME280;20358;50.272;19.026;2023-01-09T13:14:36;96750.44;;;7.92;64.27
34081;BME280;20358;50.272;19.026;2023-01-09T13:17:54;96767.44;;;7.88;64.47
34081;BME280;20358;50.272;19.026;2023-01-09T13:21:04;96781.53;;;7.87;64.65
34081;BME280;20358;50.272;19.026;2023-01-09T13:24:18;96714.25;;;7.47;64.35
34081;BME280;20358;50.272;19.026;2023-01-09T13:27:33;96789.44;;;7.87;64.33
34081;BME280;20358;50.272;19.026;2023-01-09T13:31:09;96792.59;;;7.81;63.84
34081;BME280;20358;50.272;19.026;2023-01-09T13:34:32;96793.16;;;7.75;64.62
34081;BME280;20358;50.272;19.026;2023-01-09T13:37:48;96802.06;;;7.63;64.79
34081;BME280;20358;50.272;19.026;2023-01-09T13:41:10;96800.94;;;7.56;64.54
34081;BME280;20358;50.272;19.026;2023-01-09T13:44:34;96808.91;;;7.45;64.57
34081;BME280;20358;50.272;19.026;2023-01-09T13:47:43;96812.78;;;7.41;64.62
34081;BME280;20358;50.272;19.026;2023-01-09T13:50:50;96814.16;;;7.35;64.99
34081;BME280;20358;50.272;19.026;2023-01-09T13:53:56;96827.66;;;7.31;64.87
34081;BME280;20358;50.272;19.026;2023-01-09T13:57:24;96821.84;;;7.27;65.20
34081;BME280;20358;50.272;19.026;2023-01-09T14:00:53;96821.00;;;7.27;64.76
34081;BME280;20358;50.272;19.026;2023-01-09T14:04:43;96831.78;;;7.24;64.90
34081;BME280;20358;50.272;19.026;2023-01-09T14:11:23;96829.50;;;7.10;65.11
34081;BME280;20358;50.272;19.026;2023-01-09T14:14:33;96841.66;;;7.11;65.15
34081;BME280;20358;50.272;19.026;2023-01-09T14:17:45;96853.16;;;6.99;66.04
34081;BME280;20358;50.272;19.026;2023-01-09T14:20:57;96850.34;;;6.91;66.25
34081;BME280;20358;50.272;19.026;2023-01-09T14:24:09;96860.19;;;6.77;65.68
34081;BME280;20358;50.272;19.026;2023-01-09T14:27:49;96868.44;;;6.73;66.37
34081;BME280;20358;50.272;19.026;2023-01-09T14:31:29;96885.25;;;6.70;66.50
34081;BME280;20358;50.272;19.026;2023-01-09T14:34:37;96875.78;;;6.58;66.00
34081;BME280;20358;50.272;19.026;2023-01-09T14:38:12;96865.94;;;6.40;66.39
34081;BME280;20358;50.272;19.026;2023-01-09T14:41:32;96880.66;;;6.52;66.05
34081;BME280;20358;50.272;19.026;2023-01-09T14:45:03;96900.56;;;6.54;66.65
34081;BME280;20358;50.272;19.026;2023-01-09T14:48:12;96804.59;;;5.99;66.34
34081;BME280;20358;50.272;19.026;2023-01-09T14:51:24;96881.75;;;6.49;66.58
34081;BME280;20358;50.272;19.026;2023-01-09T14:54:39;96884.44;;;6.38;66.32
34081;BME280;20358;50.272;19.026;2023-01-09T14:57:48;96883.69;;;6.36;66.41
34081;BME280;20358;50.272;19.026;2023-01-09T15:01:00;96896.81;;;6.36;67.30
34081;BME280;20358;50.272;19.026;2023-01-09T15:04:21;96894.44;;;6.33;66.99
34081;BME280;20358;50.272;19.026;2023-01-09T15:07:38;96907.28;;;6.36;67.19
34081;BME280;20358;50.272;19.026;2023-01-09T15:10:53;96911.59;;;6.26;67.75
34081;BME280;20358;50.272;19.026;2023-01-09T15:14:00;96907.44;;;6.24;67.88
34081;BME280;20358;50.272;19.026;2023-01-09T15:17:18;96910.69;;;6.16;68.16
34081;BME280;20358;50.272;19.026;2023-01-09T15:20:29;96908.75;;;6.18;67.82
34081;BME280;20358;50.272;19.026;2023-01-09T15:23:37;96911.97;;;6.22;67.75
34081;BME280;20358;50.272;19.026;2023-01-09T15:26:51;96918.78;;;6.24;67.31
34081;BME280;20358;50.272;19.026;2023-01-09T15:30:14;96925.69;;;6.25;68.28
34081;BME280;20358;50.272;19.026;2023-01-09T15:33:23;96938.34;;;6.20;67.29
34081;BME280;20358;50.272;19.026;2023-01-09T15:36:29;96949.16;;;6.27;67.50
34081;BME280;20358;50.272;19.026;2023-01-09T15:39:36;96957.84;;;6.27;67.60
34081;BME280;20358;50.272;19.026;2023-01-09T15:42:45;96967.63;;;6.25;68.02
34081;BME280;20358;50.272;19.026;2023-01-09T15:46:02;96959.88;;;6.24;67.90
34081;BME280;20358;50.272;19.026;2023-01-09T15:49:11;96954.28;;;6.17;68.29
34081;BME280;20358;50.272;19.026;2023-01-09T15:52:20;96963.09;;;6.16;68.34
34081;BME280;20358;50.272;19.026;2023-01-09T15:55:33;96970.13;;;6.15;67.88
34081;BME280;20358;50.272;19.026;2023-01-09T15:58:44;96971.09;;;6.14;68.59
34081;BME280;20358;50.272;19.026;2023-01-09T16:01:57;96976.09;;;6.18;68.32
34081;BME280;20358;50.272;19.026;2023-01-09T16:05:17;96971.44;;;6.21;68.50
34081;BME280;20358;50.272;19.026;2023-01-09T16:08:27;96967.63;;;6.25;68.17
34081;BME280;20358;50.272;19.026;2023-01-09T16:11:37;96969.09;;;6.07;68.65
34081;BME280;20358;50.272;19.026;2023-01-09T16:14:50;96966.31;;;6.08;68.16
34081;BME280;20358;50.272;19.026;2023-01-09T16:18:05;96979.06;;;6.13;67.93
34081;BME280;20358;50.272;19.026;2023-01-09T16:21:32;96983.97;;;6.06;67.71
34081;BME280;20358;50.272;19.026;2023-01-09T16:24:40;96981.72;;;6.02;68.25
34081;BME280;20358;50.272;19.026;2023-01-09T16:28:08;96986.94;;;6.02;67.85
34081;BME280;20358;50.272;19.026;2023-01-09T16:31:27;96982.88;;;6.09;67.90
34081;BME280;20358;50.272;19.026;2023-01-09T16:34:35;96998.84;;;6.06;68.07
34081;BME280;20358;50.272;19.026;2023-01-09T16:37:48;96995.75;;;6.01;68.37
34081;BME280;20358;50.272;19.026;2023-01-09T16:41:02;97014.56;;;6.06;68.24
34081;BME280;20358;50.272;19.026;2023-01-09T16:44:25;97017.06;;;6.07;67.75
34081;BME280;20358;50.272;19.026;2023-01-09T16:47:34;97007.91;;;6.02;68.27
34081;BME280;20358;50.272;19.026;2023-01-09T16:50:40;97011.47;;;6.01;67.74
34081;BME280;20358;50.272;19.026;2023-01-09T16:53:48;97012.91;;;5.94;67.32
34081;BME280;20358;50.272;19.026;2023-01-09T16:56:54;97019.53;;;5.87;67.73
34081;BME280;20358;50.272;19.026;2023-01-09T17:00:02;97026.44;;;5.77;67.35
34081;BME280;20358;50.272;19.026;2023-01-09T17:03:11;97025.13;;;5.71;67.28
34081;BME280;20358;50.272;19.026;2023-01-09T17:06:23;97027.63;;;5.73;67.35